首页
METAR-TAF:

METAR-TAF

机场 :

Quesnel, 不列颠哥伦比亚, 加拿大

纬度: 53-02N, 经度: 122-31W, 海拔: 545米

当前天气观测

该预报发布于42分钟前的00:00 UTC
风速6节,风向西北,在西转西南之间变化
温度 17°C
湿度 48%
气压 1012 hPa
能見度: 14.5公里
散云层高于10000英尺

METAR: CYQZ 170000Z AUTO 32006KT 250V360 9SM SCT100 17/06 A2987 RMK SLP128 DENSITY ALT 2500FT

时间: 17:42 (00:42 UTC)

预报

该预报发布于2小时和12分钟前的22:30 UTC
预报有效从16日的 22点(UTC)到 17日的 06点(UTC)
风速8节,风向北转西北
能見度: 10公里
散云层高于3000英尺
多云层高于8000英尺
短暂存在
从 16日的 22点(UTC)到 16日的 24点(UTC)
风速15节,风向多变,有时为25节阵风
能見度: 10公里
多云层高于3000英尺
阴天层高于8000英尺, 积雨云.
雷暴, 雨
从 17日的 0000点(UTC)
风速10节,风向西北
能見度: 10公里
散云层高于6000英尺
短暂存在
从 17日的 00点(UTC)到 17日的 02点(UTC)
风速15节,风向多变,有时为25节阵风
能見度: 10公里
多云层高于6000英尺, 积雨云.
附近有雷暴

TAF: CYQZ 162230Z 1622/1706 34008KT P6SM SCT030 BKN080 TEMPO 1622/1624 VRB15G25KT P6SM TSRA BKN030 OVC080CB FM170000 32010KT P6SM SCT060 TEMPO 1700/1702 VRB15G25KT P6SM VCTS BKN060CB RMK FCST BASED ON AUTO OBS. NXT FCST BY 170100Z

超过4000个机场的气象观测和天气预报(METAR&TAF报告)。

可查询的气象台以黄色和红色小点在地图上表示。

将鼠标移到小点上方,可查看气象台名称。

然后点击查看天气观测和预报。

如需切换地图:点击带黑十字的绿色按钮放大地图;点击带横线的绿色按钮缩小地图;或者点击绿色箭头查看邻近地区的地图。


METAR-TAF: